Time;durP1;ratioP1;P1;durP2;ratioP2;P2;SDS_P1;SDS_P2;PMS_P1;PMS_P2;Temp;Humidity;BMP_temperature;BMP_pressure;BME280_temperature;BME280_humidity;BME280_pressure;Samples;Min_cycle;Max_cycle;Signal;HPM_P1;HPM_P2
2023/09/12 00:01:08;;;;;;;15.98;10.77;;;;;;;19.20;100.00;101184.63;4991683;28;20023;-91
2023/09/12 00:03:34;;;;;;;15.63;10.77;;;;;;;19.21;100.00;101188.97;4992507;28;20162;-92
2023/09/12 00:06:01;;;;;;;14.77;10.43;;;;;;;19.21;100.00;101198.69;4993449;28;20109;-92
2023/09/12 00:08:27;;;;;;;13.80;10.32;;;;;;;19.20;100.00;101204.91;5004205;28;20108;-90
2023/09/12 00:11:04;;;;;;;16.35;11.02;;;;;;;19.20;100.00;101216.28;4994315;28;20037;-91
2023/09/12 00:13:30;;;;;;;17.23;10.35;;;;;;;19.20;100.00;101218.91;5009597;28;20104;-92
2023/09/12 00:15:56;;;;;;;14.60;10.57;;;;;;;19.20;100.00;101220.72;5012945;28;20532;-89
2023/09/12 00:18:22;;;;;;;15.52;10.18;;;;;;;19.21;100.00;101219.78;5015192;28;20026;-91
2023/09/12 00:20:47;;;;;;;14.68;10.75;;;;;;;19.21;100.00;101201.31;5013018;28;21679;-93
2023/09/12 00:23:12;;;;;;;14.15;9.88;;;;;;;19.20;100.00;101211.00;5010562;28;20080;-90
2023/09/12 00:25:38;;;;;;;13.38;10.00;;;;;;;19.19;100.00;101205.84;5014408;28;20040;-91
2023/09/12 00:28:03;;;;;;;14.30;10.07;;;;;;;19.19;100.00;101211.09;5012587;28;20033;-91
2023/09/12 00:30:29;;;;;;;15.15;10.82;;;;;;;19.16;100.00;101217.38;5013163;28;20065;-91
2023/09/12 00:32:54;;;;;;;14.73;10.55;;;;;;;19.14;100.00;101213.97;5010108;28;20479;-91
2023/09/12 00:35:19;;;;;;;15.82;10.82;;;;;;;19.13;100.00;101209.63;5014032;28;20093;-90
2023/09/12 00:37:45;;;;;;;15.35;11.05;;;;;;;19.09;100.00;101208.13;5013516;28;20520;-91
2023/09/12 00:40:10;;;;;;;14.20;10.95;;;;;;;19.05;100.00;101215.34;5013853;28;20038;-92
2023/09/12 00:42:36;;;;;;;14.18;10.40;;;;;;;19.01;100.00;101205.94;5019284;28;20026;-90
2023/09/12 00:45:01;;;;;;;13.57;10.13;;;;;;;19.00;100.00;101211.25;5017252;28;20079;-91
2023/09/12 00:47:29;;;;;;;13.82;9.65;;;;;;;18.99;100.00;101199.00;5013888;28;20037;-91
2023/09/12 00:49:56;;;;;;;13.68;9.75;;;;;;;18.94;100.00;101197.50;5012885;28;20038;-90
2023/09/12 00:52:33;;;;;;;14.27;10.45;;;;;;;18.91;100.00;101195.00;5013426;28;20025;-92
2023/09/12 00:54:59;;;;;;;13.80;10.07;;;;;;;18.88;100.00;101200.44;5013905;28;20076;-91
2023/09/12 00:57:27;;;;;;;14.15;9.88;;;;;;;18.83;100.00;101194.56;5013075;28;20057;-92
2023/09/12 00:59:53;;;;;;;13.82;9.43;;;;;;;18.79;100.00;101195.66;5016680;28;20021;-91
2023/09/12 01:02:19;;;;;;;13.30;9.88;;;;;;;18.76;100.00;101194.06;4980928;28;20026;-91
2023/09/12 01:04:46;;;;;;;11.63;8.98;;;;;;;18.74;100.00;101192.44;5012310;28;20045;-91
2023/09/12 01:07:11;;;;;;;11.65;8.85;;;;;;;18.74;100.00;101189.81;5011480;28;20481;-92
2023/09/12 01:09:36;;;;;;;12.75;9.82;;;;;;;18.75;100.00;101188.88;4994001;28;20053;-90
2023/09/12 01:12:12;;;;;;;13.27;9.23;;;;;;;18.76;100.00;101186.16;4991370;28;20034;-91
2023/09/12 01:14:37;;;;;;;12.60;9.52;;;;;;;18.75;100.00;101181.81;4992525;28;20041;-90
2023/09/12 01:17:03;;;;;;;14.20;9.90;;;;;;;18.75;100.00;101184.44;4992888;28;20026;-91
2023/09/12 01:19:28;;;;;;;12.50;9.52;;;;;;;18.76;100.00;101180.88;4975640;28;20038;-91
2023/09/12 01:22:21;;;;;;;13.68;10.20;;;;;;;18.78;100.00;101180.81;4994312;28;20037;-92
2023/09/12 01:24:55;;;;;;;15.60;10.43;;;;;;;18.80;100.00;101176.28;4990844;28;20034;-91
2023/09/12 01:27:27;;;;;;;14.57;10.55;;;;;;;18.77;100.00;101181.75;4989692;28;20085;-90
2023/09/12 01:30:04;;;;;;;15.65;10.75;;;;;;;18.77;100.00;101187.00;4993489;28;20031;-91
2023/09/12 01:32:32;;;;;;;12.80;9.40;;;;;;;18.76;100.00;101180.88;4992931;28;20474;-91
2023/09/12 01:34:57;;;;;;;14.88;10.00;;;;;;;18.76;100.00;101178.22;4993804;28;20026;-91
2023/09/12 01:37:23;;;;;;;14.45;10.40;;;;;;;18.77;100.00;101179.09;4991928;28;20030;-92
2023/09/12 01:39:48;;;;;;;15.68;10.60;;;;;;;18.75;100.00;101181.81;4993615;28;20034;-90
2023/09/12 01:42:16;;;;;;;13.02;9.80;;;;;;;18.74;100.00;101179.28;4992780;28;20030;-91
2023/09/12 01:44:44;;;;;;;13.05;10.18;;;;;;;18.72;100.00;101181.13;4991435;28;20371;-92
2023/09/12 01:47:11;;;;;;;15.27;9.82;;;;;;;18.69;100.00;101176.91;4991525;28;20026;-92
2023/09/12 01:49:39;;;;;;;15.15;10.32;;;;;;;18.69;100.00;101176.03;4989248;28;20030;-90
2023/09/12 01:52:05;;;;;;;14.05;10.20;;;;;;;18.68;100.00;101169.91;4992480;28;20045;-91
2023/09/12 01:54:32;;;;;;;14.82;10.52;;;;;;;18.66;100.00;101171.78;4990539;28;20125;-90
2023/09/12 01:56:58;;;;;;;12.73;10.15;;;;;;;18.64;100.00;101169.22;4991286;28;20033;-91
2023/09/12 01:59:24;;;;;;;14.07;10.30;;;;;;;18.64;100.00;101163.94;4991430;28;20479;-90
2023/09/12 02:01:50;;;;;;;16.23;10.82;;;;;;;18.62;100.00;101165.81;5002560;28;20034;-90
2023/09/12 02:04:15;;;;;;;15.85;10.35;;;;;;;18.61;100.00;101169.41;4994746;28;20050;-91
2023/09/12 02:06:41;;;;;;;13.88;10.35;;;;;;;18.59;100.00;101166.00;4992408;28;20136;-91
2023/09/12 02:09:06;;;;;;;14.65;10.48;;;;;;;18.59;100.00;101171.28;5004265;28;20473;-91
2023/09/12 02:11:31;;;;;;;16.00;11.07;;;;;;;18.57;100.00;101165.22;5010868;28;20030;-92
2023/09/12 02:13:56;;;;;;;16.63;11.18;;;;;;;18.57;100.00;101169.63;5011002;28;20026;-91
2023/09/12 02:16:22;;;;;;;17.20;11.68;;;;;;;18.54;100.00;101168.03;5010994;28;20037;-91
2023/09/12 02:18:48;;;;;;;14.45;11.18;;;;;;;18.53;100.00;101161.06;5011344;28;20056;-91
2023/09/12 02:21:13;;;;;;;14.95;10.60;;;;;;;18.52;100.00;101161.97;5011104;28;20037;-92
2023/09/12 02:23:38;;;;;;;16.23;10.63;;;;;;;18.52;100.00;101163.78;5010899;28;20029;-92
2023/09/12 02:26:04;;;;;;;15.73;10.93;;;;;;;18.51;100.00;101162.91;5012101;28;20034;-90
2023/09/12 02:28:29;;;;;;;17.65;10.90;;;;;;;18.50;100.00;101171.75;5010713;28;20048;-91
2023/09/12 02:30:54;;;;;;;14.68;11.35;;;;;;;18.46;100.00;101173.72;5011726;28;20061;-92
2023/09/12 02:33:19;;;;;;;15.77;11.10;;;;;;;18.45;100.00;101177.28;5010925;28;20032;-91
2023/09/12 02:35:45;;;;;;;15.32;10.95;;;;;;;18.44;100.00;101187.91;5010878;28;20032;-91
2023/09/12 02:38:10;;;;;;;14.75;11.32;;;;;;;18.44;100.00;101185.28;5011414;28;20072;-91
2023/09/12 02:40:35;;;;;;;14.00;10.18;;;;;;;18.43;100.00;101180.94;5011560;28;20478;-90
2023/09/12 02:43:01;;;;;;;14.50;10.38;;;;;;;18.41;100.00;101183.63;4993708;28;20124;-90
2023/09/12 02:45:26;;;;;;;16.25;10.93;;;;;;;18.41;100.00;101188.06;5014440;28;20052;-92
2023/09/12 02:47:51;;;;;;;16.35;10.45;;;;;;;18.39;100.00;101196.03;5016544;28;20501;-91
2023/09/12 02:50:17;;;;;;;13.35;10.18;;;;;;;18.38;100.00;101196.13;4985195;28;20040;-92
2023/09/12 02:52:42;;;;;;;12.95;9.73;;;;;;;18.36;100.00;101193.56;4998620;28;20066;-91
2023/09/12 02:55:08;;;;;;;12.55;9.57;;;;;;;18.32;100.00;101184.97;5011141;28;20048;-91
2023/09/12 02:57:33;;;;;;;12.80;9.60;;;;;;;18.30;100.00;101192.09;5009091;28;20042;-91
2023/09/12 02:59:58;;;;;;;11.80;9.02;;;;;;;18.29;100.00;101179.03;5010505;28;20437;-90
2023/09/12 03:02:23;;;;;;;14.75;9.68;;;;;;;18.27;100.00;101181.75;5009123;28;20034;-91
2023/09/12 03:04:49;;;;;;;13.38;9.73;;;;;;;18.27;100.00;101187.03;5010883;28;20022;-91
2023/09/12 03:07:14;;;;;;;13.57;10.05;;;;;;;18.25;100.00;101185.38;5011426;28;20037;-90
2023/09/12 03:09:40;;;;;;;13.38;10.05;;;;;;;18.22;100.00;101186.41;5009932;28;20049;-91
2023/09/12 03:12:05;;;;;;;15.63;10.02;;;;;;;18.20;100.00;101193.53;5012439;28;20358;-90
2023/09/12 03:14:30;;;;;;;12.50;9.75;;;;;;;18.17;100.00;101189.28;5010247;28;20042;-90
2023/09/12 03:16:56;;;;;;;13.35;9.93;;;;;;;18.17;100.00;101196.31;5011774;28;20066;-91
2023/09/12 03:19:21;;;;;;;13.20;9.55;;;;;;;18.17;100.00;101191.06;4994105;28;20493;-91
2023/09/12 03:21:47;;;;;;;12.57;9.93;;;;;;;18.16;100.00;101190.22;5011166;28;20026;-89
2023/09/12 03:24:12;;;;;;;12.95;9.52;;;;;;;18.14;100.00;101183.31;5011281;28;20078;-91
2023/09/12 03:26:37;;;;;;;15.07;9.80;;;;;;;18.12;100.00;101182.53;5011940;28;20030;-91
2023/09/12 03:29:04;;;;;;;13.65;8.98;;;;;;;18.08;100.00;101173.13;5011578;28;20110;-91
2023/09/12 03:31:29;;;;;;;12.38;8.57;;;;;;;18.03;100.00;101168.06;5024966;28;20030;-89
2023/09/12 03:33:54;;;;;;;12.05;8.82;;;;;;;18.00;100.00;101161.19;5012702;28;20026;-91
2023/09/12 03:36:19;;;;;;;9.43;7.10;;;;;;;17.95;100.00;101155.28;5013538;28;20022;-92
2023/09/12 03:38:45;;;;;;;9.07;6.75;;;;;;;17.92;100.00;101163.34;5015684;28;20028;-92
2023/09/12 03:41:10;;;;;;;7.55;6.20;;;;;;;17.88;100.00;101159.16;5015890;28;20038;-90
2023/09/12 03:43:36;;;;;;;7.43;5.68;;;;;;;17.82;100.00;101156.84;5015420;28;20112;-90
2023/09/12 03:46:03;;;;;;;7.45;5.40;;;;;;;17.77;100.00;101164.09;5015216;28;20383;-92
2023/09/12 03:48:30;;;;;;;4.95;4.13;;;;;;;17.70;100.00;101156.53;5015764;28;20018;-91
2023/09/12 03:50:56;;;;;;;8.07;3.80;;;;;;;17.67;100.00;101155.84;4996428;28;20411;-91
2023/09/12 03:53:21;;;;;;;5.05;4.07;;;;;;;17.65;100.00;101158.56;5012972;28;20033;-91
2023/09/12 03:55:46;;;;;;;5.10;4.10;;;;;;;17.62;100.00;101153.44;5013987;28;20030;-91
2023/09/12 03:58:12;;;;;;;5.20;4.60;;;;;;;17.62;100.00;101157.88;5015249;28;20026;-92
2023/09/12 04:00:37;;;;;;;6.57;4.60;;;;;;;17.62;100.00;101152.59;5013678;28;20426;-90
2023/09/12 04:03:02;;;;;;;11.07;6.47;;;;;;;17.63;100.00;101156.94;5011685;28;20072;-91
2023/09/12 04:05:28;;;;;;;10.38;6.68;;;;;;;17.63;100.00;101154.31;5014119;28;20088;-90
2023/09/12 04:07:53;;;;;;;8.60;6.78;;;;;;;17.65;100.00;101158.56;5015122;28;20073;-91
2023/09/12 04:10:20;;;;;;;8.30;6.95;;;;;;;17.66;100.00;101155.00;5013682;28;20458;-89
2023/09/12 04:12:45;;;;;;;9.35;7.53;;;;;;;17.68;100.00;101155.78;5013696;28;20037;-91
2023/09/12 04:15:11;;;;;;;10.00;7.72;;;;;;;17.68;100.00;101147.88;5012754;28;20029;-91
2023/09/12 04:17:36;;;;;;;12.23;8.07;;;;;;;17.69;100.00;101144.31;4995769;28;20130;-91
2023/09/12 04:20:04;;;;;;;10.93;8.05;;;;;;;17.70;100.00;101151.28;5013652;28;20061;-92
2023/09/12 04:22:30;;;;;;;11.00;7.72;;;;;;;17.72;100.00;101146.78;5012885;28;20033;-92
2023/09/12 04:24:55;;;;;;;11.05;8.68;;;;;;;17.74;100.00;101146.72;5014426;28;20382;-92
2023/09/12 04:27:21;;;;;;;13.25;9.32;;;;;;;17.74;100.00;101144.94;5013054;28;20124;-92
2023/09/12 04:29:46;;;;;;;10.95;8.82;;;;;;;17.73;100.00;101148.50;5013787;28;20458;-91
2023/09/12 04:32:11;;;;;;;10.88;8.48;;;;;;;17.75;100.00;101151.91;5012448;28;20034;-90
2023/09/12 04:34:37;;;;;;;11.15;8.45;;;;;;;17.78;100.00;101144.75;5012513;28;20025;-92
2023/09/12 04:37:02;;;;;;;10.88;7.70;;;;;;;17.80;100.00;101151.66;5012707;28;20098;-91
2023/09/12 04:39:28;;;;;;;9.45;7.75;;;;;;;17.79;100.00;101154.34;5014146;28;20371;-92
2023/09/12 04:41:53;;;;;;;9.68;7.72;;;;;;;17.78;100.00;101150.03;5014294;28;20034;-92
2023/09/12 04:44:18;;;;;;;12.18;8.73;;;;;;;17.80;100.00;101156.06;5011092;28;20028;-92
2023/09/12 04:46:44;;;;;;;12.57;9.38;;;;;;;17.81;100.00;101161.25;4988685;28;20050;-92
2023/09/12 04:49:09;;;;;;;14.43;9.95;;;;;;;17.81;100.00;101158.63;5012662;28;20064;-91
2023/09/12 04:51:34;;;;;;;13.88;10.05;;;;;;;17.83;100.00;101166.44;4993860;28;20049;-90
2023/09/12 04:54:00;;;;;;;15.15;10.02;;;;;;;17.83;100.00;101162.03;5011081;28;20084;-91
2023/09/12 04:56:25;;;;;;;14.00;9.82;;;;;;;17.84;100.00;101168.16;5009866;28;20060;-90
2023/09/12 04:58:50;;;;;;;14.45;9.90;;;;;;;17.82;100.00;101170.00;5012080;28;20085;-91
2023/09/12 05:01:16;;;;;;;12.90;9.57;;;;;;;17.81;100.00;101165.66;5009882;28;20457;-91
2023/09/12 05:03:42;;;;;;;13.45;10.00;;;;;;;17.78;100.00;101164.03;5008627;28;20042;-91
2023/09/12 05:06:07;;;;;;;13.98;9.40;;;;;;;17.77;100.00;101166.75;5011573;28;20041;-90
2023/09/12 05:08:32;;;;;;;16.15;9.88;;;;;;;17.75;100.00;101172.09;5013345;28;20049;-91
2023/09/12 05:10:58;;;;;;;15.57;10.30;;;;;;;17.75;100.00;101174.72;5010375;28;20026;-91
2023/09/12 05:13:23;;;;;;;14.45;10.02;;;;;;;17.74;100.00;101173.88;5011721;28;20025;-90
2023/09/12 05:15:48;;;;;;;22.45;11.50;;;;;;;17.76;100.00;101173.78;5010667;28;21795;-90
2023/09/12 05:18:14;;;;;;;17.17;10.07;;;;;;;17.74;100.00;101176.53;5011640;28;20057;-91
2023/09/12 05:20:39;;;;;;;17.20;10.68;;;;;;;17.72;100.00;101183.63;5011650;28;20030;-90
2023/09/12 05:23:04;;;;;;;15.43;10.90;;;;;;;17.72;100.00;101177.50;5013091;28;20022;-91
2023/09/12 05:25:30;;;;;;;14.32;10.23;;;;;;;17.70;100.00;101177.59;5012396;28;20398;-91
2023/09/12 05:27:55;;;;;;;15.52;9.88;;;;;;;17.69;100.00;101175.91;5012886;28;20017;-91
2023/09/12 05:30:21;;;;;;;18.02;11.00;;;;;;;17.70;100.00;101176.72;5010577;28;20080;-91
2023/09/12 05:32:46;;;;;;;15.25;10.57;;;;;;;17.71;100.00;101168.78;5007415;28;20032;-91
2023/09/12 05:35:11;;;;;;;14.13;10.15;;;;;;;17.71;100.00;101174.03;5009364;28;20026;-90
2023/09/12 05:37:36;;;;;;;16.05;9.98;;;;;;;17.72;100.00;101170.47;5010990;28;20036;-90
2023/09/12 05:40:03;;;;;;;15.93;10.35;;;;;;;17.75;100.00;101158.94;5011186;28;20393;-90
2023/09/12 05:42:28;;;;;;;14.95;10.57;;;;;;;17.75;100.00;101158.94;5010398;28;20062;-90
2023/09/12 05:44:53;;;;;;;15.63;10.48;;;;;;;17.73;100.00;101161.66;5010724;28;20088;-90
2023/09/12 05:47:22;;;;;;;14.20;10.63;;;;;;;17.75;100.00;101165.06;5012816;28;20026;-91
2023/09/12 05:49:47;;;;;;;15.35;10.15;;;;;;;17.75;100.00;101180.00;5009309;28;20037;-89
2023/09/12 05:52:13;;;;;;;16.50;10.13;;;;;;;17.75;100.00;101175.59;5013336;28;20018;-91
2023/09/12 05:54:40;;;;;;;15.13;9.30;;;;;;;17.75;100.00;101175.59;5011918;28;20104;-89
2023/09/12 05:57:06;;;;;;;13.90;9.90;;;;;;;17.76;100.00;101173.78;5025933;28;20028;-90
2023/09/12 05:59:31;;;;;;;15.23;10.38;;;;;;;17.77;100.00;101177.28;5027560;28;20093;-90
2023/09/12 06:01:56;;;;;;;14.50;9.82;;;;;;;17.74;100.00;101173.88;4990495;28;20113;-90
2023/09/12 06:04:22;;;;;;;15.05;10.05;;;;;;;17.75;100.00;101180.00;5009177;28;20037;-90
2023/09/12 06:06:47;;;;;;;15.00;10.15;;;;;;;17.77;100.00;101179.91;5013178;28;20029;-90
2023/09/12 06:09:12;;;;;;;16.65;10.32;;;;;;;17.75;100.00;101180.84;5010680;28;20053;-89
2023/09/12 06:11:38;;;;;;;14.48;10.30;;;;;;;17.75;100.00;101180.84;5011619;28;20025;-89
2023/09/12 06:14:03;;;;;;;13.40;9.40;;;;;;;17.77;100.00;101175.50;5011146;28;20418;-91
2023/09/12 06:16:29;;;;;;;15.82;10.40;;;;;;;17.79;100.00;101175.41;5012634;28;20034;-89
2023/09/12 06:18:54;;;;;;;14.25;10.20;;;;;;;17.78;100.00;101173.72;5031601;28;20021;-90
2023/09/12 06:21:21;;;;;;;13.90;9.77;;;;;;;17.78;100.00;101178.97;5030549;28;20052;-91
2023/09/12 06:23:47;;;;;;;14.80;9.90;;;;;;;17.78;100.00;101179.84;5010186;28;20099;-90
2023/09/12 06:26:12;;;;;;;17.65;10.20;;;;;;;17.79;100.00;101170.16;5031981;28;20480;-91
2023/09/12 06:28:37;;;;;;;14.82;9.82;;;;;;;17.78;100.00;101181.59;5012235;28;20025;-89
2023/09/12 06:31:03;;;;;;;13.55;10.40;;;;;;;17.80;100.00;101192.91;5030412;28;20392;-90
2023/09/12 06:33:28;;;;;;;13.05;9.95;;;;;;;17.81;100.00;101189.34;5031802;28;20037;-90
2023/09/12 06:35:54;;;;;;;14.57;10.07;;;;;;;17.83;100.00;101188.38;5031666;28;20496;-89
2023/09/12 06:38:20;;;;;;;13.98;9.93;;;;;;;17.84;100.00;101182.16;5031202;28;20029;-90
2023/09/12 06:40:48;;;;;;;13.98;10.30;;;;;;;17.85;100.00;101188.28;5031515;28;20044;-90
2023/09/12 06:43:14;;;;;;;14.05;10.40;;;;;;;17.85;100.00;101190.91;5031020;28;20038;-90
2023/09/12 06:45:42;;;;;;;15.13;10.65;;;;;;;17.84;100.00;101191.81;5032239;28;20028;-91
2023/09/12 06:48:07;;;;;;;15.32;10.75;;;;;;;17.86;100.00;101187.34;5031625;28;20048;-90
2023/09/12 06:50:33;;;;;;;14.80;9.65;;;;;;;17.88;100.00;101193.38;5031430;28;20393;-91
2023/09/12 06:52:58;;;;;;;16.08;9.77;;;;;;;17.90;100.00;101191.53;5030709;28;20053;-91
2023/09/12 06:55:24;;;;;;;15.52;10.10;;;;;;;17.93;100.00;101198.41;5030530;28;20081;-89
2023/09/12 06:57:49;;;;;;;15.38;10.52;;;;;;;17.96;100.00;101201.72;5031509;28;20037;-91
2023/09/12 07:00:15;;;;;;;15.52;10.32;;;;;;;17.99;100.00;101198.97;5030246;28;20406;-90
2023/09/12 07:02:40;;;;;;;16.55;10.70;;;;;;;18.01;100.00;101202.38;5031470;28;20113;-90
2023/09/12 07:05:06;;;;;;;16.83;10.88;;;;;;;18.03;100.00;101204.91;5028598;28;20047;-90
2023/09/12 07:07:32;;;;;;;16.48;12.02;;;;;;;18.06;100.00;101212.66;5030834;28;20366;-90
2023/09/12 07:09:59;;;;;;;17.83;11.82;;;;;;;18.11;100.00;101212.41;5018456;28;20036;-91
2023/09/12 07:12:28;;;;;;;16.40;11.52;;;;;;;18.13;100.00;101210.56;5026526;28;20105;-90
2023/09/12 07:14:54;;;;;;;16.98;11.77;;;;;;;18.17;100.00;101204.22;5014091;28;20033;-90
2023/09/12 07:17:19;;;;;;;18.85;12.77;;;;;;;18.18;100.00;101201.53;5032213;28;20022;-91
2023/09/12 07:19:45;;;;;;;18.52;12.80;;;;;;;18.23;100.00;101206.53;5030414;28;20026;-90
2023/09/12 07:22:10;;;;;;;18.98;12.25;;;;;;;18.27;100.00;101213.34;5034192;28;20064;-89
2023/09/12 07:24:35;;;;;;;17.45;12.02;;;;;;;18.30;100.00;101207.91;5032832;28;20038;-94
2023/09/12 07:27:00;;;;;;;18.00;13.30;;;;;;;18.32;100.00;101210.47;5033666;28;20071;-90
2023/09/12 07:29:27;;;;;;;19.70;13.05;;;;;;;18.35;100.00;101224.31;5031106;28;20030;-90
2023/09/12 07:31:53;;;;;;;19.77;13.50;;;;;;;18.39;100.00;101217.09;5025062;28;20489;-93
2023/09/12 07:34:19;;;;;;;19.90;12.73;;;;;;;18.43;100.00;101218.66;5027120;28;20021;-91
2023/09/12 07:36:45;;;;;;;20.60;13.38;;;;;;;18.46;100.00;101209.72;5030904;28;21278;-95
2023/09/12 07:39:10;;;;;;;19.98;13.15;;;;;;;18.48;100.00;101216.63;5035339;28;20036;-94
2023/09/12 07:41:36;;;;;;;20.75;13.38;;;;;;;18.53;100.00;101207.63;5031875;28;20025;-92
2023/09/12 07:44:04;;;;;;;19.73;13.80;;;;;;;18.57;100.00;101215.28;5033198;28;20038;-93
2023/09/12 07:46:29;;;;;;;21.33;13.48;;;;;;;18.59;100.00;101215.19;5033512;28;20505;-92
2023/09/12 07:48:55;;;;;;;20.27;13.52;;;;;;;18.61;100.00;101230.00;5037817;28;20068;-94
2023/09/12 07:53:55;;;;;;;22.00;14.32;;;;;;;18.64;100.00;101231.63;5491533;22;20769;-91
2023/09/12 07:56:20;;;;;;;23.40;15.48;;;;;;;18.65;100.00;101234.16;5035408;28;20021;-92
2023/09/12 07:58:56;;;;;;;;;;;;;;;;;;;;;
2023/09/12 08:01:21;;;;;;;23.60;15.25;;;;;;;18.74;100.00;101222.28;5032530;28;20506;-93
2023/09/12 08:03:47;;;;;;;22.25;15.55;;;;;;;18.77;100.00;101222.13;5030129;28;20167;-91
2023/09/12 08:06:13;;;;;;;24.10;14.95;;;;;;;18.80;100.00;101215.81;5026411;28;20029;-92
2023/09/12 08:08:38;;;;;;;26.10;15.63;;;;;;;18.82;100.00;101216.59;5028089;28;20022;-92
2023/09/12 08:11:03;;;;;;;24.23;15.68;;;;;;;18.85;100.00;101219.06;5014084;28;20178;-93
2023/09/12 08:13:32;;;;;;;23.58;15.35;;;;;;;18.87;100.00;101216.34;5033522;28;20021;-91
2023/09/12 08:15:57;;;;;;;23.00;15.32;;;;;;;18.88;100.00;101210.13;5030030;28;20104;-90
2023/09/12 08:18:28;;;;;;;23.02;14.13;;;;;;;18.90;100.00;101213.53;5032565;28;20100;-93
2023/09/12 08:20:53;;;;;;;25.15;15.90;;;;;;;18.93;100.00;101218.63;5030582;28;20048;-95
2023/09/12 08:23:19;;;;;;;21.95;14.32;;;;;;;18.96;100.00;101215.88;5021088;28;20076;-94
2023/09/12 08:25:44;;;;;;;23.23;14.95;;;;;;;18.96;100.00;101227.25;5004146;28;20053;-92
2023/09/12 08:28:09;;;;;;;23.02;14.70;;;;;;;18.99;100.00;101241.19;5026789;28;20088;-93
2023/09/12 08:30:34;;;;;;;23.17;15.07;;;;;;;19.01;100.00;101237.56;5028800;28;20485;-93
2023/09/12 08:33:03;;;;;;;23.13;13.50;;;;;;;19.05;100.00;101240.88;5031258;28;20170;-90
2023/09/12 08:35:28;;;;;;;18.70;12.50;;;;;;;19.05;100.00;101235.59;5012941;28;20435;-93
2023/09/12 08:37:55;;;;;;;17.10;11.10;;;;;;;19.07;100.00;101239.84;5026981;28;20029;-92
2023/09/12 08:40:20;;;;;;;20.10;12.90;;;;;;;19.11;100.00;101240.53;5026723;28;20156;-94
2023/09/12 08:42:47;;;;;;;18.05;11.50;;;;;;;19.19;100.00;101253.31;5023923;28;20637;-93
2023/09/12 08:45:14;;;;;;;20.25;11.80;;;;;;;19.24;100.00;101252.09;5026050;28;20033;-92
2023/09/12 08:47:49;;;;;;;18.90;12.13;;;;;;;19.29;100.00;101258.91;5027519;28;20029;-90
2023/09/12 08:50:16;;;;;;;17.80;11.32;;;;;;;19.32;100.00;101256.94;5026195;28;20040;-92
2023/09/12 08:52:42;;;;;;;19.20;11.63;;;;;;;19.35;100.00;101258.56;5025326;28;20025;-90
2023/09/12 08:55:09;;;;;;;16.55;10.82;;;;;;;19.37;100.00;101262.84;5022833;28;20087;-91
2023/09/12 08:57:37;;;;;;;17.63;11.30;;;;;;;19.41;100.00;101258.22;5023132;28;20769;-90
2023/09/12 09:00:09;;;;;;;17.58;11.10;;;;;;;19.50;100.00;101267.41;5033666;28;20071;-94
2023/09/12 09:02:38;;;;;;;20.27;10.90;;;;;;;19.58;100.00;101259.06;5216619;23;20088;-89
2023/09/12 09:05:25;;;;;;;17.75;11.18;;;;;;;19.64;100.00;101258.72;5009299;28;20021;-95
2023/09/12 09:08:00;;;;;;;18.05;10.43;;;;;;;19.66;100.00;101262.09;5023629;28;20022;-93
2023/09/12 09:10:33;;;;;;;17.88;11.40;;;;;;;19.67;100.00;101263.78;5021771;28;20754;-92
2023/09/12 09:12:58;;;;;;;16.38;10.95;;;;;;;19.70;100.00;101269.75;5038290;28;20037;-91
2023/09/12 09:22:14;;;;;;;19.77;10.85;;;;;;;19.85;100.00;101275.09;5274274;23;20396;-96
2023/09/12 09:29:55;;;;;;;17.65;10.55;;;;;;;20.06;100.00;101254.50;5625025;22;20063;-96
2023/09/12 09:32:30;;;;;;;15.93;11.13;;;;;;;20.07;100.00;101240.38;5042126;28;20484;-95
2023/09/12 09:35:46;;;;;;;;;;;;;;;;;;;;;
2023/09/12 09:42:33;;;;;;;14.73;9.65;;;;;;;20.15;98.56;101246.03;4889269;29;20117;-94
2023/09/12 09:45:02;;;;;;;15.77;10.88;;;;;;;20.17;98.78;101252.06;4910206;28;20059;-92
2023/09/12 09:47:28;;;;;;;16.92;11.27;;;;;;;20.20;96.87;101250.19;4949308;28;20039;-90
2023/09/12 09:49:57;;;;;;;20.48;10.95;;;;;;;20.24;97.52;101254.34;4962858;28;20034;-92
2023/09/12 09:52:38;;;;;;;17.15;10.90;;;;;;;20.27;96.30;101251.53;5018839;28;20035;-91
2023/09/12 09:55:07;;;;;;;15.52;9.48;;;;;;;20.31;93.23;101258.34;5022728;28;20044;-92
2023/09/12 10:00:55;;;;;;;13.98;9.50;;;;;;;20.37;91.92;101247.38;5044514;28;20060;-92
2023/09/12 10:03:22;;;;;;;14.18;9.55;;;;;;;20.39;94.29;101240.22;5040844;28;20043;-91
2023/09/12 10:06:11;;;;;;;13.30;9.05;;;;;;;20.42;93.64;101242.69;5044127;28;20106;-96
2023/09/12 10:08:38;;;;;;;12.40;8.75;;;;;;;20.40;89.77;101252.50;5029519;28;20048;-91
2023/09/12 10:11:04;;;;;;;12.88;8.90;;;;;;;20.42;90.16;101255.88;5041449;28;20032;-90
2023/09/12 10:13:32;;;;;;;11.63;8.02;;;;;;;20.45;89.04;101250.44;5040583;28;20090;-91
2023/09/12 10:16:02;;;;;;;10.98;7.40;;;;;;;20.47;90.73;101242.38;5040299;28;21997;-92
2023/09/12 10:18:42;;;;;;;10.27;7.30;;;;;;;20.49;90.38;101250.25;5039837;28;20030;-95
2023/09/12 10:21:21;;;;;;;12.88;7.63;;;;;;;20.52;90.45;101257.97;5042302;28;20108;-94
2023/09/12 10:23:50;;;;;;;10.93;7.15;;;;;;;20.55;87.95;101247.19;5038675;28;20036;-91
2023/09/12 10:26:16;;;;;;;9.55;6.50;;;;;;;20.58;87.54;101242.56;5038190;28;20031;-91
2023/09/12 10:28:42;;;;;;;13.93;7.10;;;;;;;20.61;87.96;101238.91;5038971;28;20029;-93
2023/09/12 10:31:10;;;;;;;9.93;6.53;;;;;;;20.64;85.42;101244.00;5020302;28;20084;-93
2023/09/12 10:33:43;;;;;;;10.35;6.30;;;;;;;20.69;87.15;101241.91;5020150;28;20029;-94
2023/09/12 10:36:09;;;;;;;11.07;6.93;;;;;;;20.74;86.21;101244.28;5017764;28;20029;-90
2023/09/12 10:38:41;;;;;;;11.40;6.90;;;;;;;20.80;87.09;101240.44;5018929;28;20036;-92
2023/09/12 10:41:11;;;;;;;9.05;6.70;;;;;;;20.83;88.76;101232.31;5020504;28;21309;-91
2023/09/12 10:43:38;;;;;;;12.25;6.93;;;;;;;20.84;89.08;101231.34;5022362;28;20060;-87
2023/09/12 10:46:03;;;;;;;11.18;7.03;;;;;;;20.86;87.38;101226.81;5020973;28;20079;-88
2023/09/12 10:48:30;;;;;;;11.68;7.40;;;;;;;20.92;89.23;101226.44;5024038;28;20470;-90
2023/09/12 10:51:00;;;;;;;11.98;7.93;;;;;;;20.99;88.54;101225.09;5020813;28;20036;-89
2023/09/12 10:53:28;;;;;;;11.82;7.90;;;;;;;21.06;89.53;101222.91;5022082;28;20068;-90
2023/09/12 10:56:15;;;;;;;12.07;7.13;;;;;;;21.12;87.67;101226.97;5023347;28;20037;-89
2023/09/12 10:59:09;;;;;;;9.38;6.00;;;;;;;21.16;85.28;101229.28;5022857;28;20397;-94
2023/09/12 11:01:36;;;;;;;7.65;4.90;;;;;;;21.14;78.65;101235.66;5023807;28;20109;-92
2023/09/12 11:04:19;;;;;;;7.88;4.57;;;;;;;21.18;83.39;101232.69;5026750;28;20458;-92
2023/09/12 11:06:48;;;;;;;9.40;4.95;;;;;;;21.19;80.76;101239.69;5022572;28;20484;-90
2023/09/12 11:09:13;;;;;;;8.10;5.22;;;;;;;21.23;81.77;101235.03;5021018;28;20083;-94
2023/09/12 11:11:39;;;;;;;10.70;5.75;;;;;;;21.25;82.37;101235.78;5022326;28;20033;-92
2023/09/12 11:14:06;;;;;;;8.45;5.85;;;;;;;21.30;83.28;101239.00;5007231;28;20030;-87
2023/09/12 11:16:32;;;;;;;8.63;5.68;;;;;;;21.35;84.80;101234.22;5018876;28;21416;-94
2023/09/12 11:19:15;;;;;;;8.45;5.45;;;;;;;21.40;84.40;101225.16;5021268;28;20045;-89
2023/09/12 11:21:41;;;;;;;8.80;5.15;;;;;;;21.41;82.12;101224.19;5021894;28;20124;-89
2023/09/12 11:24:06;;;;;;;9.18;5.90;;;;;;;21.41;80.83;101224.19;5036979;28;20032;-92
2023/09/12 11:26:32;;;;;;;7.45;5.60;;;;;;;21.42;81.79;101223.25;5028177;28;20029;-92
2023/09/12 11:29:10;;;;;;;8.20;5.15;;;;;;;21.43;83.57;101217.00;5027572;28;20112;-92
2023/09/12 11:31:37;;;;;;;7.53;5.20;;;;;;;21.45;82.50;101223.06;5049488;28;20035;-93